Time;durP1;ratioP1;P1;durP2;ratioP2;P2;SDS_P1;SDS_P2;PMS_P1;PMS_P2;Temp;Humidity;BMP_temperature;BMP_pressure;BME280_temperature;BME280_humidity;BME280_pressure;Samples;Min_cycle;Max_cycle;Signal;HPM_P1;HPM_P2
2022/12/18 00:00:40;;;;;;;23.67;11.68;;;;;;;2.21;100.00;99430.00;5012541;28;20033;-78
2022/12/18 00:03:05;;;;;;;21.70;11.05;;;;;;;2.17;100.00;99427.81;4994960;28;20123;-81
2022/12/18 00:05:31;;;;;;;23.45;11.52;;;;;;;2.34;100.00;99413.41;4978691;28;20041;-80
2022/12/18 00:07:57;;;;;;;18.70;11.45;;;;;;;2.23;100.00;99391.84;4994777;28;20076;-82
2022/12/18 00:10:22;;;;;;;15.98;10.93;;;;;;;2.49;100.00;99406.09;4995125;28;20028;-80
2022/12/18 00:12:48;;;;;;;21.42;11.30;;;;;;;2.47;100.00;99403.66;4994568;28;20426;-81
2022/12/18 00:15:14;;;;;;;17.13;10.10;;;;;;;2.70;100.00;99398.22;4977525;28;20030;-80
2022/12/18 00:17:41;;;;;;;21.73;10.18;;;;;;;2.59;100.00;99417.31;4978588;28;20073;-80
2022/12/18 00:20:07;;;;;;;15.82;9.95;;;;;;;2.71;100.00;99420.59;4978693;28;20535;-80
2022/12/18 00:22:33;;;;;;;22.08;11.07;;;;;;;2.65;100.00;99406.41;4994574;28;20030;-80
2022/12/18 00:24:58;;;;;;;19.30;10.88;;;;;;;2.60;100.00;99392.19;4993486;28;20487;-79
2022/12/18 00:27:24;;;;;;;15.35;9.27;;;;;;;2.79;100.00;99412.16;4994808;28;20037;-82
2022/12/18 00:29:50;;;;;;;21.33;11.27;;;;;;;2.64;100.00;99415.13;5011793;28;20026;-81
2022/12/18 00:32:15;;;;;;;26.10;11.23;;;;;;;2.58;100.00;99418.25;4994773;28;20080;-80
2022/12/18 00:34:41;;;;;;;19.30;10.60;;;;;;;2.50;100.00;99413.75;5012368;28;20030;-80
2022/12/18 00:37:06;;;;;;;17.80;9.98;;;;;;;2.66;100.00;99428.78;5012164;28;20037;-81
2022/12/18 00:39:32;;;;;;;20.35;11.07;;;;;;;2.63;100.00;99434.22;4975035;28;20373;-81
2022/12/18 00:44:41;;;;;;;15.82;10.75;;;;;;;2.46;100.00;99429.69;4989395;28;20026;-82
2022/12/18 00:47:07;;;;;;;19.55;11.13;;;;;;;2.44;100.00;99429.81;4975182;28;20536;-81
2022/12/18 00:49:33;;;;;;;18.58;11.48;;;;;;;2.37;100.00;99414.00;4974668;28;20065;-80
2022/12/18 00:51:58;;;;;;;18.80;11.30;;;;;;;2.33;100.00;99404.81;4991188;28;20111;-80
2022/12/18 00:54:24;;;;;;;18.52;10.65;;;;;;;2.27;100.00;99413.97;4974546;28;20476;-80
2022/12/18 00:56:50;;;;;;;20.58;10.90;;;;;;;2.41;100.00;99433.50;4990788;28;20035;-80
2022/12/18 00:59:17;;;;;;;21.02;10.60;;;;;;;2.31;100.00;99424.06;4991834;28;20034;-80
2022/12/18 01:01:43;;;;;;;18.83;11.57;;;;;;;2.33;100.00;99433.31;4974887;28;20479;-81
2022/12/18 01:04:08;;;;;;;17.83;10.88;;;;;;;2.32;100.00;99436.84;4991909;28;20025;-81
2022/12/18 01:06:34;;;;;;;21.42;11.70;;;;;;;2.13;100.00;99432.44;4991985;28;20440;-81
2022/12/18 01:09:00;;;;;;;19.75;10.75;;;;;;;2.28;100.00;99448.44;4991720;28;20034;-82
2022/12/18 01:11:25;;;;;;;19.80;11.13;;;;;;;2.22;100.00;99436.00;4990554;28;20065;-81
2022/12/18 01:13:52;;;;;;;21.27;12.27;;;;;;;2.21;100.00;99439.56;4990483;28;20540;-82
2022/12/18 01:16:18;;;;;;;20.52;13.00;;;;;;;2.18;100.00;99445.00;4990517;28;20040;-81
2022/12/18 01:18:44;;;;;;;28.33;14.73;;;;;;;2.13;100.00;99432.44;4990495;28;20416;-80
2022/12/18 01:21:14;;;;;;;27.17;15.20;;;;;;;2.10;100.00;99424.94;4990341;28;20475;-79
2022/12/18 01:23:39;;;;;;;25.40;15.65;;;;;;;2.05;100.00;99420.13;4987965;28;20498;-81
2022/12/18 01:26:13;;;;;;;26.23;15.10;;;;;;;2.01;100.00;99413.59;4974148;28;20062;-80
2022/12/18 01:28:39;;;;;;;24.98;13.82;;;;;;;1.87;100.00;99401.81;4989476;28;20042;-80
2022/12/18 01:31:20;;;;;;;22.35;12.88;;;;;;;2.14;100.00;99413.34;4990122;28;20030;-81
2022/12/18 01:33:50;;;;;;;26.38;12.70;;;;;;;2.00;100.00;99417.13;4989150;28;20121;-80
2022/12/18 01:36:23;;;;;;;19.38;12.68;;;;;;;1.79;100.00;99405.03;4990221;28;20036;-81
2022/12/18 01:38:50;;;;;;;25.60;12.50;;;;;;;1.90;100.00;99411.06;4974002;28;20050;-81
2022/12/18 01:41:17;;;;;;;20.95;12.13;;;;;;;1.75;100.00;99419.16;4990440;28;20034;-82
2022/12/18 01:43:49;;;;;;;20.75;12.07;;;;;;;1.81;100.00;99428.19;4990152;28;20077;-80
2022/12/18 01:46:16;;;;;;;20.88;12.55;;;;;;;1.84;100.00;99433.94;4989619;28;20018;-81
2022/12/18 01:48:43;;;;;;;25.10;13.55;;;;;;;1.75;100.00;99413.97;4990405;28;20484;-80
2022/12/18 01:51:10;;;;;;;20.58;12.45;;;;;;;1.68;100.00;99402.50;4974282;28;20034;-81
2022/12/18 01:53:38;;;;;;;21.92;11.05;;;;;;;1.46;100.00;99418.97;4990434;28;20034;-82
2022/12/18 01:56:04;;;;;;;23.33;12.63;;;;;;;1.48;100.00;99428.28;4990400;28;20500;-80
2022/12/18 01:58:46;;;;;;;27.50;15.30;;;;;;;1.53;100.00;99433.88;4977871;28;20030;-80
2022/12/18 02:01:12;;;;;;;19.80;11.30;;;;;;;1.45;100.00;99432.88;4993344;28;20484;-81
2022/12/18 02:03:42;;;;;;;25.33;11.82;;;;;;;1.54;100.00;99432.13;4976739;28;20030;-80
2022/12/18 02:06:07;;;;;;;19.83;12.32;;;;;;;1.50;100.00;99441.91;4977505;28;20503;-80
2022/12/18 02:08:37;;;;;;;21.98;13.18;;;;;;;1.53;100.00;99441.63;4992612;28;20058;-80
2022/12/18 02:11:15;;;;;;;18.88;11.52;;;;;;;1.50;100.00;99430.75;4977646;28;20034;-81
2022/12/18 02:13:50;;;;;;;22.63;12.30;;;;;;;1.55;100.00;99434.56;4977521;28;20034;-82
2022/12/18 02:16:24;;;;;;;20.35;11.60;;;;;;;1.45;100.00;99432.88;4977476;28;20041;-81
2022/12/18 02:18:56;;;;;;;22.42;11.93;;;;;;;1.18;100.00;99431.59;4994019;28;20085;-81
2022/12/18 02:21:36;;;;;;;25.50;12.25;;;;;;;1.21;100.00;99442.50;4994935;28;20073;-80
2022/12/18 02:24:43;;;;;;;19.38;12.05;;;;;;;1.23;100.00;99440.63;4993457;28;20476;-81
2022/12/18 02:27:10;;;;;;;20.05;11.40;;;;;;;1.17;100.00;99435.94;4977178;28;20116;-80
2022/12/18 02:29:43;;;;;;;21.15;11.88;;;;;;;1.16;100.00;99441.25;4992643;28;20411;-80
2022/12/18 02:32:18;;;;;;;21.98;11.45;;;;;;;1.13;100.00;99444.88;4975262;28;20034;-82
2022/12/18 02:34:45;;;;;;;19.48;12.35;;;;;;;1.02;100.00;99437.19;4992879;28;20112;-81
2022/12/18 02:37:14;;;;;;;20.92;12.50;;;;;;;1.15;100.00;99453.34;4994108;28;20432;-82
2022/12/18 02:39:43;;;;;;;23.48;13.20;;;;;;;0.89;100.00;99421.84;5007372;28;20444;-81
2022/12/18 02:42:11;;;;;;;25.48;13.63;;;;;;;1.09;100.00;99453.84;4997010;28;20057;-81
2022/12/18 02:44:49;;;;;;;24.98;14.23;;;;;;;1.05;100.00;99437.75;4980797;28;20037;-81
2022/12/18 02:47:16;;;;;;;23.05;12.98;;;;;;;1.07;100.00;99450.56;5028962;28;20514;-81
2022/12/18 02:49:57;;;;;;;23.38;13.05;;;;;;;1.21;100.00;99458.03;4997224;28;20049;-81
2022/12/18 02:52:31;;;;;;;25.45;13.85;;;;;;;1.10;100.00;99450.31;5013653;28;20424;-81
2022/12/18 02:55:17;;;;;;;27.05;12.73;;;;;;;1.21;100.00;99441.69;4981061;28;20112;-81
2022/12/18 02:58:04;;;;;;;27.98;13.75;;;;;;;1.18;100.00;99431.59;4995401;28;20502;-80
2022/12/18 03:00:41;;;;;;;26.70;13.27;;;;;;;1.12;100.00;99427.72;4994578;28;20101;-81
2022/12/18 03:03:19;;;;;;;22.38;12.98;;;;;;;1.08;100.00;99423.75;5028034;28;20049;-82
2022/12/18 03:06:10;;;;;;;23.60;12.77;;;;;;;1.14;100.00;99431.00;4996941;28;20066;-84
2022/12/18 03:08:46;;;;;;;23.00;12.63;;;;;;;1.14;100.00;99434.44;4995276;28;20061;-82
2022/12/18 03:11:13;;;;;;;30.23;13.75;;;;;;;1.11;100.00;99428.69;4980288;28;20030;-81
2022/12/18 03:13:51;;;;;;;24.30;13.95;;;;;;;1.03;100.00;99418.13;4979111;28;20554;-81
2022/12/18 03:16:29;;;;;;;27.65;15.27;;;;;;;1.14;100.00;99412.91;5013741;28;20057;-82
2022/12/18 03:18:58;;;;;;;36.22;15.70;;;;;;;1.16;100.00;99423.94;4996744;28;20029;-82
2022/12/18 03:21:33;;;;;;;31.60;16.63;;;;;;;1.26;100.00;99422.28;4996847;28;20033;-80
2022/12/18 03:24:01;;;;;;;29.98;15.82;;;;;;;1.10;100.00;99388.25;4996616;28;20550;-82
2022/12/18 03:26:28;;;;;;;35.20;18.67;;;;;;;1.33;100.00;99417.41;4996549;28;20061;-80
2022/12/18 03:29:02;;;;;;;31.33;17.05;;;;;;;1.38;100.00;99417.06;4979379;28;20495;-80
2022/12/18 03:31:31;;;;;;;35.08;17.23;;;;;;;1.31;100.00;99418.47;4978651;28;21003;-81
2022/12/18 03:34:05;;;;;;;37.95;18.75;;;;;;;1.39;100.00;99403.97;4996221;28;20487;-80
2022/12/18 03:36:32;;;;;;;32.70;18.27;;;;;;;1.37;100.00;99389.50;5013103;28;20037;-81
2022/12/18 03:38:57;;;;;;;35.55;17.13;;;;;;;1.40;100.00;99394.47;4979343;28;20049;-81
2022/12/18 03:41:43;;;;;;;38.10;18.92;;;;;;;1.32;100.00;99378.72;5013061;28;20049;-82
2022/12/18 03:44:12;;;;;;;35.80;17.33;;;;;;;1.30;100.00;99388.38;4994295;28;20033;-80
2022/12/18 03:46:48;;;;;;;39.28;19.27;;;;;;;1.43;100.00;99378.69;5011511;28;20057;-79
2022/12/18 03:49:25;;;;;;;36.85;18.40;;;;;;;1.43;100.00;99373.50;4995322;28;20021;-80
2022/12/18 03:52:04;;;;;;;33.65;19.50;;;;;;;1.39;100.00;99357.41;4994922;28;20395;-82
2022/12/18 03:54:31;;;;;;;42.10;20.83;;;;;;;1.43;100.00;99363.16;5011882;28;20033;-82
2022/12/18 03:57:03;;;;;;;38.50;20.00;;;;;;;1.45;100.00;99358.69;4995081;28;20040;-80
2022/12/18 03:59:30;;;;;;;47.45;22.95;;;;;;;1.38;100.00;99349.81;4995347;28;20034;-80
2022/12/18 04:02:00;;;;;;;36.85;18.90;;;;;;;1.31;100.00;99327.97;4994927;28;20041;-81
2022/12/18 04:04:28;;;;;;;41.50;20.90;;;;;;;1.37;100.00;99317.09;4995111;28;20029;-82
2022/12/18 04:06:55;;;;;;;36.25;20.05;;;;;;;1.27;100.00;99314.44;4995239;28;20025;-81
2022/12/18 04:09:21;;;;;;;40.25;20.90;;;;;;;1.31;100.00;99320.19;5013177;28;20054;-82
2022/12/18 04:11:47;;;;;;;40.00;20.30;;;;;;;1.23;100.00;99310.50;4995354;28;20368;-81
2022/12/18 04:14:14;;;;;;;38.17;19.52;;;;;;;1.07;100.00;99316.13;5010309;28;20057;-80
2022/12/18 04:16:40;;;;;;;37.97;19.55;;;;;;;1.19;100.00;99299.59;4979270;28;20030;-83
2022/12/18 04:19:05;;;;;;;34.63;19.00;;;;;;;1.20;100.00;99279.72;4978716;28;20105;-82
2022/12/18 04:21:31;;;;;;;41.10;20.73;;;;;;;1.23;100.00;99298.41;5012938;28;20057;-82
2022/12/18 04:23:57;;;;;;;45.67;21.08;;;;;;;1.06;100.00;99301.56;4995681;28;20052;-81
2022/12/18 04:26:24;;;;;;;41.42;21.67;;;;;;;1.21;100.00;99312.38;4995422;28;20084;-83
2022/12/18 04:28:49;;;;;;;40.85;21.42;;;;;;;1.30;100.00;99306.47;4979369;28;20034;-82
2022/12/18 04:31:15;;;;;;;47.90;22.08;;;;;;;1.26;100.00;99286.97;4995585;28;20113;-82
2022/12/18 04:33:40;;;;;;;47.42;21.27;;;;;;;1.20;100.00;99288.31;4979337;28;20034;-81
2022/12/18 04:36:07;;;;;;;47.10;22.70;;;;;;;1.32;100.00;99280.47;5012431;28;20033;-82
2022/12/18 04:38:32;;;;;;;42.28;21.63;;;;;;;1.37;100.00;99288.63;4994588;28;20042;-82
2022/12/18 04:40:58;;;;;;;49.30;23.08;;;;;;;1.34;100.00;99269.03;4995154;28;20033;-82
2022/12/18 04:43:24;;;;;;;53.67;20.38;;;;;;;1.32;100.00;99262.34;4994826;28;20018;-82
2022/12/18 04:45:50;;;;;;;48.42;20.85;;;;;;;1.31;100.00;99282.25;4978557;28;20041;-83
2022/12/18 04:48:15;;;;;;;52.08;23.95;;;;;;;1.20;100.00;99282.31;4994821;28;20048;-80
2022/12/18 04:50:41;;;;;;;48.67;23.08;;;;;;;1.10;100.00;99277.06;4977488;28;20084;-80
2022/12/18 04:53:06;;;;;;;49.75;21.70;;;;;;;1.15;100.00;99280.09;5012654;28;20037;-80
2022/12/18 04:55:32;;;;;;;46.13;20.65;;;;;;;1.31;100.00;99277.06;4994870;28;20112;-82
2022/12/18 04:57:57;;;;;;;50.20;23.55;;;;;;;1.20;100.00;99270.22;4995536;28;20111;-82
2022/12/18 05:00:23;;;;;;;46.90;21.50;;;;;;;1.29;100.00;99263.44;4995315;28;20032;-82
2022/12/18 05:02:48;;;;;;;53.05;23.45;;;;;;;1.16;100.00;99234.38;4978503;28;20903;-80
2022/12/18 05:05:14;;;;;;;57.50;23.95;;;;;;;1.31;100.00;99247.78;5012452;28;20081;-82
2022/12/18 05:07:40;;;;;;;55.95;25.33;;;;;;;1.48;100.00;99244.59;4995187;28;20034;-81
2022/12/18 05:10:06;;;;;;;57.95;25.35;;;;;;;1.27;100.00;99231.69;5012439;28;20129;-82
2022/12/18 05:12:32;;;;;;;63.55;24.13;;;;;;;1.46;100.00;99233.56;4978092;28;20446;-83
2022/12/18 05:14:57;;;;;;;57.88;24.83;;;;;;;1.62;100.00;99225.28;4978413;28;20069;-82
2022/12/18 05:17:24;;;;;;;67.70;26.83;;;;;;;1.82;100.00;99220.16;4978869;28;20092;-82
2022/12/18 05:19:50;;;;;;;60.33;26.73;;;;;;;1.98;100.00;99198.97;4978423;28;20046;-81
2022/12/18 05:22:16;;;;;;;64.93;26.20;;;;;;;2.16;100.00;99216.38;4978961;28;20028;-84
2022/12/18 05:24:42;;;;;;;65.68;25.13;;;;;;;2.21;100.00;99209.84;4994598;28;20394;-80
2022/12/18 05:27:07;;;;;;;66.75;28.27;;;;;;;2.18;100.00;99217.09;5012092;28;20038;-82
2022/12/18 05:29:33;;;;;;;69.65;26.75;;;;;;;2.10;100.00;99215.97;4978451;28;20030;-83
2022/12/18 05:31:58;;;;;;;68.53;26.58;;;;;;;2.20;100.00;99226.34;4982408;28;20036;-82
2022/12/18 05:34:25;;;;;;;64.97;26.92;;;;;;;2.20;100.00;99210.81;4982609;28;20050;-81
2022/12/18 05:36:50;;;;;;;66.07;26.73;;;;;;;2.23;100.00;99213.13;5016037;28;20033;-84
2022/12/18 05:39:16;;;;;;;62.55;26.85;;;;;;;2.19;100.00;99193.63;4998410;28;20414;-82
2022/12/18 05:41:41;;;;;;;61.92;27.05;;;;;;;2.34;100.00;99212.16;5015728;28;20053;-81
2022/12/18 05:44:07;;;;;;;64.55;27.80;;;;;;;2.10;100.00;99187.50;4997956;28;20425;-82
2022/12/18 05:46:32;;;;;;;68.82;29.85;;;;;;;2.18;100.00;99204.16;4998065;28;20038;-82
2022/12/18 05:49:00;;;;;;;66.03;28.95;;;;;;;2.16;100.00;99211.19;5016000;28;20048;-82
2022/12/18 05:51:26;;;;;;;68.60;29.35;;;;;;;2.16;100.00;99226.75;4998373;28;20440;-82
2022/12/18 05:53:52;;;;;;;76.80;29.38;;;;;;;2.19;100.00;99226.50;4997702;28;20120;-83
2022/12/18 05:56:20;;;;;;;80.00;30.77;;;;;;;2.10;100.00;99241.06;4981459;28;20041;-82
2022/12/18 05:58:47;;;;;;;73.07;29.42;;;;;;;2.16;100.00;99225.00;5014743;28;20030;-81
2022/12/18 06:01:15;;;;;;;87.00;31.77;;;;;;;2.17;100.00;99247.34;4981407;28;20107;-82
2022/12/18 06:03:41;;;;;;;90.90;34.63;;;;;;;1.89;100.00;99226.47;4981639;28;20033;-82
2022/12/18 06:06:22;;;;;;;93.70;32.85;;;;;;;1.80;100.00;99225.50;4997660;28;20030;-83
2022/12/18 06:08:48;;;;;;;83.53;32.67;;;;;;;1.68;100.00;99255.84;4997712;28;20041;-83
2022/12/18 06:11:18;;;;;;;77.22;30.77;;;;;;;1.97;100.00;99249.09;4997359;28;20427;-82
2022/12/18 06:13:46;;;;;;;86.78;31.55;;;;;;;1.97;100.00;99247.31;5013922;28;20395;-81
2022/12/18 06:16:12;;;;;;;93.13;32.42;;;;;;;1.74;100.00;99214.84;4981238;28;20037;-82
2022/12/18 06:18:38;;;;;;;84.47;33.28;;;;;;;1.83;100.00;99225.22;4997436;28;20048;-80
2022/12/18 06:21:04;;;;;;;83.65;32.83;;;;;;;1.88;100.00;99196.34;4997915;28;20037;-81
2022/12/18 06:23:30;;;;;;;92.05;34.15;;;;;;;1.94;100.00;99218.28;4997350;28;20068;-81
2022/12/18 06:25:55;;;;;;;88.55;33.92;;;;;;;1.99;100.00;99223.88;4997579;28;20032;-81
2022/12/18 06:28:21;;;;;;;99.13;34.72;;;;;;;1.99;100.00;99234.25;5015016;28;20502;-81
2022/12/18 06:30:48;;;;;;;95.50;35.90;;;;;;;2.11;100.00;99238.34;5014605;28;20033;-81
2022/12/18 06:33:14;;;;;;;101.13;38.47;;;;;;;1.94;100.00;99216.50;4997116;28;20037;-80
2022/12/18 06:35:40;;;;;;;95.68;36.67;;;;;;;1.99;100.00;99218.72;4997126;28;20054;-82
2022/12/18 06:38:07;;;;;;;98.63;35.88;;;;;;;2.05;100.00;99207.81;4996562;28;20041;-81
2022/12/18 06:40:34;;;;;;;96.85;35.85;;;;;;;2.17;100.00;99187.78;4978943;28;20042;-83
2022/12/18 06:42:59;;;;;;;91.30;36.05;;;;;;;2.45;100.00;99231.13;4995986;28;20088;-83
2022/12/18 06:45:25;;;;;;;87.75;37.50;;;;;;;2.06;100.00;99229.31;5014220;28;20041;-82
2022/12/18 06:47:51;;;;;;;94.80;37.33;;;;;;;1.94;100.00;99190.63;5013666;28;20557;-83
2022/12/18 06:50:19;;;;;;;97.30;37.17;;;;;;;2.26;100.00;99235.34;4996590;28;20029;-81
2022/12/18 06:52:44;;;;;;;95.25;36.63;;;;;;;2.21;100.00;99229.78;4996485;28;20386;-81
2022/12/18 06:55:11;;;;;;;89.57;37.35;;;;;;;2.40;100.00;99237.53;4996579;28;20033;-81
2022/12/18 06:57:38;;;;;;;92.38;37.72;;;;;;;2.20;100.00;99233.31;5013886;28;20391;-82
2022/12/18 07:00:06;;;;;;;101.07;38.50;;;;;;;2.40;100.00;99234.94;5014335;28;20145;-82
2022/12/18 07:02:32;;;;;;;131.82;40.60;;;;;;;2.31;100.00;99233.16;4996380;28;20034;-81
2022/12/18 07:04:58;;;;;;;105.43;40.03;;;;;;;2.35;100.00;99224.16;4994071;28;20026;-82
2022/12/18 07:07:24;;;;;;;90.78;37.28;;;;;;;2.51;100.00;99221.03;4980670;28;20361;-84
2022/12/18 07:09:50;;;;;;;99.15;39.65;;;;;;;2.68;100.00;99219.50;4997686;28;20030;-82
2022/12/18 07:12:16;;;;;;;100.95;39.83;;;;;;;2.59;100.00;99194.44;4997331;28;20033;-84
2022/12/18 07:14:42;;;;;;;114.57;42.83;;;;;;;2.42;100.00;99177.78;5014453;28;20029;-82
2022/12/18 07:17:08;;;;;;;99.38;38.58;;;;;;;2.43;100.00;99195.81;4980956;28;20045;-81
2022/12/18 07:19:34;;;;;;;102.60;37.90;;;;;;;2.54;100.00;99201.78;4980849;28;20034;-80
2022/12/18 07:22:00;;;;;;;104.57;40.42;;;;;;;2.35;100.00;99208.63;4996915;28;20399;-84
2022/12/18 07:24:25;;;;;;;94.28;37.63;;;;;;;2.33;100.00;99199.38;4980739;28;20475;-84
2022/12/18 07:26:51;;;;;;;95.78;38.65;;;;;;;2.10;100.00;99191.88;4996977;28;20041;-83
2022/12/18 07:29:16;;;;;;;95.72;39.70;;;;;;;2.25;100.00;99192.28;4996967;28;20036;-83
2022/12/18 07:31:42;;;;;;;96.25;37.50;;;;;;;2.31;100.00;99171.00;4996468;28;20117;-84
2022/12/18 07:34:12;;;;;;;100.13;39.78;;;;;;;2.18;100.00;99186.00;4980504;28;20069;-83
2022/12/18 07:36:38;;;;;;;101.10;37.63;;;;;;;2.25;100.00;99177.53;5014232;28;20030;-83
2022/12/18 07:39:05;;;;;;;106.63;40.20;;;;;;;2.28;100.00;99171.28;4993651;28;20200;-83
2022/12/18 07:41:30;;;;;;;106.25;41.38;;;;;;;2.35;100.00;99172.34;4993492;28;20034;-83
2022/12/18 07:43:57;;;;;;;109.53;38.97;;;;;;;2.32;100.00;99166.66;4993547;28;20050;-84
2022/12/18 07:46:23;;;;;;;101.65;38.53;;;;;;;2.34;100.00;99178.47;4977436;28;20117;-81
2022/12/18 07:48:48;;;;;;;96.30;38.95;;;;;;;2.20;100.00;99158.19;4976701;28;20054;-82
2022/12/18 07:51:14;;;;;;;100.00;37.80;;;;;;;2.34;100.00;99167.31;4992456;28;20484;-81
2022/12/18 07:53:41;;;;;;;103.05;39.38;;;;;;;2.11;100.00;99165.81;4975413;28;20030;-82
2022/12/18 07:56:12;;;;;;;96.80;36.80;;;;;;;2.12;100.00;99172.63;4992821;28;20033;-81
2022/12/18 07:58:38;;;;;;;101.60;39.42;;;;;;;2.09;100.00;99154.78;4992449;28;20034;-83
2022/12/18 08:01:09;;;;;;;103.55;38.17;;;;;;;2.35;100.00;99161.19;4992753;28;20026;-82
2022/12/18 08:03:35;;;;;;;98.18;37.70;;;;;;;2.30;100.00;99168.56;4992442;28;20387;-81
2022/12/18 08:06:03;;;;;;;101.07;38.72;;;;;;;2.14;100.00;99164.75;4975878;28;20069;-82
2022/12/18 08:08:29;;;;;;;106.63;37.75;;;;;;;2.02;100.00;99160.66;4976911;28;20038;-85
2022/12/18 08:10:56;;;;;;;100.65;37.67;;;;;;;2.18;100.00;99166.09;4992912;28;20049;-85
2022/12/18 08:13:22;;;;;;;101.82;37.97;;;;;;;1.83;100.00;99142.38;4975284;28;20034;-84
2022/12/18 08:16:21;;;;;;;108.97;39.20;;;;;;;2.18;100.00;99165.28;4990980;28;20411;-88
2022/12/18 08:18:48;;;;;;;105.32;37.58;;;;;;;2.20;100.00;99179.72;4952861;28;20108;-88
2022/12/18 08:21:18;;;;;;;109.15;38.05;;;;;;;1.98;100.00;99179.03;4979411;28;20054;-87
2022/12/18 08:23:44;;;;;;;102.78;36.60;;;;;;;2.20;100.00;99199.66;4990814;28;20030;-86
2022/12/18 08:26:11;;;;;;;101.35;38.15;;;;;;;2.18;100.00;99176.47;4991178;28;20040;-86
2022/12/18 08:28:37;;;;;;;89.90;35.65;;;;;;;2.31;100.00;99190.91;4991376;28;20678;-87
2022/12/18 08:31:03;;;;;;;101.32;37.83;;;;;;;2.06;100.00;99175.78;4993134;28;20030;-87
2022/12/18 08:33:29;;;;;;;101.32;39.03;;;;;;;2.35;100.00;99187.88;4990894;28;20034;-83
2022/12/18 08:35:55;;;;;;;98.15;36.05;;;;;;;2.13;100.00;99174.28;4991240;28;20449;-84
2022/12/18 08:38:22;;;;;;;100.40;36.50;;;;;;;2.25;100.00;99176.72;4991247;28;20026;-83
2022/12/18 08:40:48;;;;;;;95.28;35.67;;;;;;;2.13;100.00;99163.09;4977482;28;20475;-83
2022/12/18 08:45:58;;;;;;;102.55;36.63;;;;;;;2.40;100.00;99167.59;5010882;28;20093;-81
2022/12/18 08:48:23;;;;;;;89.43;34.00;;;;;;;2.31;100.00;99158.03;5013071;28;20391;-81
2022/12/18 08:50:57;;;;;;;93.25;34.33;;;;;;;2.32;100.00;99162.25;4995648;28;20049;-80
2022/12/18 08:53:24;;;;;;;;;;;;;;;2.40;100.00;99153.81;4992601;28;20033;-81
2022/12/18 08:55:49;;;;;;;92.13;33.72;;;;;;;2.14;100.00;99124.13;4976691;28;19924;-84
2022/12/18 08:58:15;;;;;;;93.10;33.20;;;;;;;1.96;100.00;99133.53;4993209;28;20392;-81
2022/12/18 09:00:41;;;;;;;92.10;33.22;;;;;;;1.82;100.00;99124.41;4991710;28;20041;-81
2022/12/18 09:03:17;;;;;;;89.93;32.78;;;;;;;2.27;100.00;99133.38;4976784;28;20029;-80
2022/12/18 09:05:45;;;;;;;92.97;33.50;;;;;;;2.19;100.00;99147.00;4994565;28;20124;-82
2022/12/18 09:08:11;;;;;;;92.20;34.03;;;;;;;1.97;100.00;99127.41;5015484;28;20084;-81
2022/12/18 09:10:46;;;;;;;82.32;30.02;;;;;;;2.35;100.00;99130.91;5015052;28;20449;-82
2022/12/18 09:13:12;;;;;;;88.80;32.80;;;;;;;2.33;100.00;99119.88;4996966;28;20538;-81
2022/12/18 09:15:46;;;;;;;87.35;32.53;;;;;;;2.33;100.00;99119.88;4981296;28;20037;-83
2022/12/18 09:18:14;;;;;;;92.53;34.47;;;;;;;2.31;100.00;99114.00;5014998;28;20033;-89
2022/12/18 09:20:40;;;;;;;79.97;30.88;;;;;;;2.24;100.00;99103.38;4986715;28;20034;-89
2022/12/18 09:23:06;;;;;;;86.55;32.60;;;;;;;2.11;100.00;99095.09;4983931;28;20053;-88
2022/12/18 09:25:35;;;;;;;81.82;32.67;;;;;;;2.40;100.00;99089.88;4985811;28;20599;-89
2022/12/18 09:28:02;;;;;;;83.18;32.08;;;;;;;2.33;100.00;99070.66;4986434;28;20038;-89
2022/12/18 09:30:28;;;;;;;93.15;32.60;;;;;;;2.47;100.00;99071.16;4988162;28;20121;-89
2022/12/18 09:32:55;;;;;;;82.82;31.50;;;;;;;2.52;100.00;99077.56;4990453;28;20484;-89
2022/12/18 09:35:21;;;;;;;79.90;30.10;;;;;;;2.54;100.00;99082.59;4988531;28;20076;-89
2022/12/18 09:37:47;;;;;;;89.05;33.20;;;;;;;2.24;100.00;99043.00;4986282;28;20491;-89
2022/12/18 09:40:16;;;;;;;76.10;31.10;;;;;;;2.26;100.00;99033.31;4987132;28;20034;-88
2022/12/18 09:42:48;;;;;;;71.13;29.65;;;;;;;2.38;100.00;99063.28;4987904;28;20018;-90
2022/12/18 09:45:15;;;;;;;80.10;30.42;;;;;;;2.48;100.00;99054.66;4998991;28;20084;-89
2022/12/18 09:47:42;;;;;;;76.72;30.77;;;;;;;2.56;100.00;99039.25;5000225;28;20030;-85
2022/12/18 09:50:17;;;;;;;80.95;30.20;;;;;;;2.56;100.00;99034.06;4999853;28;20034;-86
2022/12/18 09:52:47;;;;;;;79.47;29.92;;;;;;;2.45;100.00;99016.09;4982261;28;20487;-87
2022/12/18 09:55:34;;;;;;;80.47;30.20;;;;;;;2.34;100.00;99010.09;4982446;28;20121;-87
2022/12/18 09:58:44;;;;;;;77.38;29.30;;;;;;;2.63;100.00;99035.09;4984638;28;20579;-87
2022/12/18 10:01:16;;;;;;;74.70;28.30;;;;;;;2.50;100.00;99039.78;4987863;28;20050;-87
2022/12/18 10:03:41;;;;;;;68.07;26.80;;;;;;;2.36;100.00;99010.81;4981652;28;20506;-85
2022/12/18 10:06:31;;;;;;;66.07;27.55;;;;;;;2.48;100.00;99014.03;4981046;28;20037;-85
2022/12/18 10:09:09;;;;;;;70.50;28.55;;;;;;;2.47;100.00;99024.53;4996497;28;20046;-86
2022/12/18 10:11:39;;;;;;;61.78;26.83;;;;;;;2.73;100.00;99029.88;5015627;28;20112;-85
2022/12/18 10:14:20;;;;;;;67.93;26.95;;;;;;;2.57;100.00;99030.50;4997301;28;20038;-84
2022/12/18 10:17:05;;;;;;;67.40;27.15;;;;;;;2.66;100.00;99032.22;4978545;28;20120;-84
2022/12/18 10:19:59;;;;;;;62.30;25.95;;;;;;;2.67;100.00;99025.28;4995041;28;20109;-87
2022/12/18 10:22:52;;;;;;;67.03;26.80;;;;;;;2.92;100.00;99010.78;5015613;28;20133;-86
2022/12/18 10:25:45;;;;;;;59.38;25.33;;;;;;;2.77;100.00;98978.56;4956381;28;20069;-85
2022/12/18 10:28:16;;;;;;;66.47;25.27;;;;;;;2.87;100.00;99000.06;4997710;28;20093;-85
2022/12/18 10:30:43;;;;;;;70.65;26.60;;;;;;;2.74;100.00;98984.03;5013464;28;20501;-85
2022/12/18 10:33:22;;;;;;;63.78;25.08;;;;;;;2.92;100.00;98990.06;4996708;28;20026;-86
2022/12/18 10:35:52;;;;;;;63.40;25.70;;;;;;;2.80;100.00;98949.75;5013228;28;20123;-84
2022/12/18 10:38:17;;;;;;;69.88;24.90;;;;;;;2.91;100.00;98975.47;5012382;28;20455;-87
2022/12/18 10:40:56;;;;;;;60.30;26.80;;;;;;;3.02;100.00;98971.03;4997087;28;20109;-84
2022/12/18 10:43:30;;;;;;;69.13;26.58;;;;;;;2.97;100.00;98963.69;4994905;28;20030;-84
2022/12/18 10:46:14;;;;;;;69.63;24.67;;;;;;;2.98;100.00;98962.72;4994670;28;20109;-83
2022/12/18 10:48:44;;;;;;;66.90;26.33;;;;;;;2.95;100.00;98956.06;4978193;28;20087;-83
2022/12/18 10:51:23;;;;;;;59.03;25.27;;;;;;;3.02;100.00;98930.34;5011222;28;20030;-84
2022/12/18 10:54:03;;;;;;;58.65;24.52;;;;;;;3.10;100.00;98932.19;5012422;28;20107;-82
2022/12/18 10:56:30;;;;;;;59.40;25.00;;;;;;;2.89;100.00;98915.16;4993747;28;20030;-84
2022/12/18 10:59:11;;;;;;;60.83;24.42;;;;;;;2.99;100.00;98926.28;4995159;28;20033;-86
2022/12/18 11:01:47;;;;;;;60.40;24.15;;;;;;;3.07;100.00;98927.31;4977760;28;20030;-83
2022/12/18 11:04:20;;;;;;;61.90;25.98;;;;;;;3.06;100.00;98925.69;4994607;28;20041;-84
2022/12/18 11:07:08;;;;;;;;;;;;;;;3.29;100.00;98921.66;4994965;28;20096;-83
2022/12/18 11:09:35;;;;;;;63.60;25.23;;;;;;;3.26;100.00;98911.59;5009002;28;19910;-82
2022/12/18 11:12:22;;;;;;;63.53;25.40;;;;;;;3.38;100.00;98908.78;4978690;28;20052;-83
2022/12/18 11:14:55;;;;;;;62.00;26.23;;;;;;;3.27;100.00;98896.84;5011048;28;20034;-85
2022/12/18 11:17:29;;;;;;;53.03;24.08;;;;;;;3.35;100.00;98896.91;4994516;28;20030;-83
2022/12/18 11:19:57;;;;;;;64.07;25.50;;;;;;;3.50;100.00;98901.56;5012253;28;20030;-82
2022/12/18 11:22:27;;;;;;;60.67;25.85;;;;;;;3.62;100.00;98894.31;5011600;28;20034;-83
2022/12/18 11:25:02;;;;;;;59.53;26.17;;;;;;;3.49;100.00;98863.59;4981488;28;20026;-87
2022/12/18 11:27:29;;;;;;;66.80;25.45;;;;;;;3.24;100.00;98851.28;4983320;28;20492;-86
2022/12/18 11:30:28;;;;;;;61.33;25.77;;;;;;;3.43;100.00;98876.19;5002793;28;20049;-88
2022/12/18 11:33:13;;;;;;;59.05;25.08;;;;;;;3.73;100.00;98860.28;4982394;28;20050;-86